createdAt,value
2018-04-26T00:00:07.089Z,9.83333333333
2018-04-26T00:00:19.553Z,9.83333333333
2018-04-26T00:00:31.982Z,9.83333333333
2018-04-26T00:00:44.393Z,9.83333333333
2018-04-26T00:00:56.822Z,9.83333333333
2018-04-26T00:01:09.231Z,9.83333333333
2018-04-26T00:01:21.671Z,9.83333333333
2018-04-26T00:01:34.089Z,9.83333333333
2018-04-26T00:01:46.626Z,9.83333333333
2018-04-26T00:01:59.069Z,9.88888888889
2018-04-26T00:02:11.505Z,9.83333333333
2018-04-26T00:02:23.909Z,9.88888888889
2018-04-26T00:02:36.349Z,9.83333333333
2018-04-26T00:02:48.755Z,9.83333333333
2018-04-26T00:03:01.180Z,9.88888888889
2018-04-26T00:03:13.609Z,9.88888888889
2018-04-26T00:03:26.018Z,9.88888888889
2018-04-26T00:03:38.443Z,9.83333333333
2018-04-26T00:03:50.872Z,9.83333333333
2018-04-26T00:04:03.271Z,9.83333333333
2018-04-26T00:04:15.690Z,9.88888888889
2018-04-26T00:04:28.124Z,9.83333333333
2018-04-26T00:04:40.543Z,9.88888888889
2018-04-26T00:04:52.962Z,9.83333333333
2018-04-26T00:05:05.381Z,9.88888888889
2018-04-26T00:05:17.803Z,9.88888888889
2018-04-26T00:05:30.211Z,9.83333333333
2018-04-26T00:05:42.616Z,9.83333333333
2018-04-26T00:05:55.039Z,9.83333333333
2018-04-26T00:06:07.458Z,9.83333333333
2018-04-26T00:06:19.892Z,9.88888888889
2018-04-26T00:06:32.299Z,9.88888888889
2018-04-26T00:06:44.785Z,9.83333333333
2018-04-26T00:06:57.209Z,9.88888888889
2018-04-26T00:07:09.641Z,9.83333333333
2018-04-26T00:07:22.058Z,9.83333333333
2018-04-26T00:07:34.464Z,9.83333333333
2018-04-26T00:07:46.894Z,9.83333333333
2018-04-26T00:07:59.337Z,9.88888888889
2018-04-26T00:08:11.768Z,9.83333333333
2018-04-26T00:08:24.185Z,9.83333333333
2018-04-26T00:08:36.598Z,9.83333333333
2018-04-26T00:08:48.999Z,9.88888888889
2018-04-26T00:09:01.406Z,9.83333333333
2018-04-26T00:09:13.825Z,9.83333333333
2018-04-26T00:09:26.257Z,9.83333333333
2018-04-26T00:09:38.683Z,9.83333333333
2018-04-26T00:09:51.093Z,9.83333333333
2018-04-26T00:10:03.515Z,9.83333333333
2018-04-26T00:10:15.953Z,9.83333333333
2018-04-26T00:10:28.376Z,9.83333333333
2018-04-26T00:10:41.092Z,9.83333333333
2018-04-26T00:10:53.499Z,9.83333333333
2018-04-26T00:11:05.983Z,9.83333333333
2018-04-26T00:11:18.465Z,9.83333333333
2018-04-26T00:11:30.908Z,9.83333333333
2018-04-26T00:11:43.320Z,9.83333333333
2018-04-26T00:11:55.742Z,9.83333333333
2018-04-26T00:12:08.160Z,9.83333333333
2018-04-26T00:12:20.573Z,9.83333333333
2018-04-26T00:12:33.009Z,9.77777777778
2018-04-26T00:12:45.432Z,9.83333333333
2018-04-26T00:12:58.019Z,9.77777777778
2018-04-26T00:13:10.444Z,9.83333333333
2018-04-26T00:13:22.863Z,9.77777777778
2018-04-26T00:13:35.383Z,9.77777777778
2018-04-26T00:13:47.809Z,9.77777777778
2018-04-26T00:14:00.237Z,9.77777777778
2018-04-26T00:14:12.660Z,9.77777777778
2018-04-26T00:14:25.152Z,9.77777777778
2018-04-26T00:14:37.580Z,9.77777777778
2018-04-26T00:14:49.989Z,9.77777777778
2018-04-26T00:15:02.409Z,9.77777777778
2018-04-26T00:15:14.833Z,9.77777777778
2018-04-26T00:15:27.255Z,9.77777777778
2018-04-26T00:15:39.663Z,9.72222222222
2018-04-26T00:15:52.080Z,9.72222222222
2018-04-26T00:16:04.517Z,9.72222222222
2018-04-26T00:16:16.927Z,9.72222222222
2018-04-26T00:16:29.334Z,9.72222222222
2018-04-26T00:16:41.745Z,9.72222222222
2018-04-26T00:16:54.185Z,9.72222222222
2018-04-26T00:17:06.600Z,9.72222222222
2018-04-26T00:17:19.017Z,9.72222222222
2018-04-26T00:17:31.438Z,9.72222222222
2018-04-26T00:17:43.851Z,9.72222222222
2018-04-26T00:17:56.269Z,9.72222222222
2018-04-26T00:18:08.680Z,9.66666666667
2018-04-26T00:18:21.094Z,9.66666666667
2018-04-26T00:18:33.957Z,9.66666666667
2018-04-26T00:18:46.399Z,9.66666666667
2018-04-26T00:18:58.798Z,9.66666666667
2018-04-26T00:19:11.218Z,9.66666666667
2018-04-26T00:19:23.639Z,9.66666666667
2018-04-26T00:19:36.193Z,9.66666666667
2018-04-26T00:19:48.613Z,9.66666666667
2018-04-26T00:20:01.026Z,9.66666666667
2018-04-26T00:20:13.451Z,9.61111111111
2018-04-26T00:20:25.865Z,9.66666666667
2018-04-26T00:20:38.288Z,9.66666666667
2018-04-26T00:20:50.689Z,9.61111111111
2018-04-26T00:21:03.106Z,9.66666666667
2018-04-26T00:21:15.508Z,9.66666666667
2018-04-26T00:21:27.921Z,9.66666666667
2018-04-26T00:21:40.338Z,9.66666666667
2018-04-26T00:21:52.764Z,9.61111111111
2018-04-26T00:22:05.177Z,9.61111111111
2018-04-26T00:22:17.583Z,9.61111111111
2018-04-26T00:22:29.993Z,9.66666666667
2018-04-26T00:22:42.425Z,9.61111111111
2018-04-26T00:22:54.937Z,9.61111111111
2018-04-26T00:23:07.350Z,9.61111111111
2018-04-26T00:23:19.750Z,9.55555555556
2018-04-26T00:23:32.198Z,9.61111111111
2018-04-26T00:23:44.610Z,9.55555555556
2018-04-26T00:23:57.026Z,9.61111111111
2018-04-26T00:24:09.435Z,9.61111111111
2018-04-26T00:24:21.833Z,9.55555555556
2018-04-26T00:24:34.244Z,9.55555555556
2018-04-26T00:24:46.647Z,9.55555555556
2018-04-26T00:24:59.066Z,9.55555555556
2018-04-26T00:25:11.501Z,9.55555555556
2018-04-26T00:25:23.917Z,9.55555555556
2018-04-26T00:25:36.312Z,9.55555555556
2018-04-26T00:25:48.735Z,9.55555555556
2018-04-26T00:26:01.144Z,9.55555555556
2018-04-26T00:26:13.634Z,9.55555555556
2018-04-26T00:26:26.044Z,9.55555555556
2018-04-26T00:26:38.459Z,9.55555555556
2018-04-26T00:26:50.871Z,9.55555555556
2018-04-26T00:27:03.280Z,9.55555555556
2018-04-26T00:27:15.695Z,9.55555555556
2018-04-26T00:27:28.161Z,9.55555555556
2018-04-26T00:27:40.573Z,9.55555555556
2018-04-26T00:27:53.150Z,9.5
2018-04-26T00:28:05.572Z,9.55555555556
2018-04-26T00:28:17.995Z,9.5
2018-04-26T00:28:30.409Z,9.5
2018-04-26T00:28:42.825Z,9.5
2018-04-26T00:28:55.253Z,9.55555555556
2018-04-26T00:29:07.687Z,9.5
2018-04-26T00:29:20.099Z,9.5
2018-04-26T00:29:32.510Z,9.5
2018-04-26T00:29:44.919Z,9.5
2018-04-26T00:29:57.330Z,9.5
2018-04-26T00:30:09.744Z,9.5
2018-04-26T00:30:22.160Z,9.44444444444
2018-04-26T00:30:34.573Z,9.5
2018-04-26T00:30:47.004Z,9.5
2018-04-26T00:30:59.424Z,9.5
2018-04-26T00:31:11.855Z,9.44444444444
2018-04-26T00:31:24.284Z,9.5
2018-04-26T00:31:36.698Z,9.44444444444
2018-04-26T00:31:49.123Z,9.5
2018-04-26T00:32:01.540Z,9.44444444444
2018-04-26T00:32:13.975Z,9.5
2018-04-26T00:32:26.400Z,9.5
2018-04-26T00:32:38.811Z,9.5
2018-04-26T00:32:51.465Z,9.5
2018-04-26T00:33:03.883Z,9.44444444444
2018-04-26T00:33:16.315Z,9.44444444444
2018-04-26T00:33:28.728Z,9.44444444444
2018-04-26T00:33:41.150Z,9.44444444444
2018-04-26T00:33:53.581Z,9.44444444444
2018-04-26T00:34:05.992Z,9.44444444444
2018-04-26T00:34:18.408Z,9.44444444444
2018-04-26T00:34:30.918Z,9.44444444444
2018-04-26T00:34:43.334Z,9.44444444444
2018-04-26T00:34:55.746Z,9.5
2018-04-26T00:35:08.261Z,9.44444444444
2018-04-26T00:35:20.693Z,9.38888888889
2018-04-26T00:35:33.115Z,9.44444444444
2018-04-26T00:35:45.549Z,9.44444444444
2018-04-26T00:35:57.947Z,9.44444444444
2018-04-26T00:36:10.360Z,9.44444444444
2018-04-26T00:36:22.787Z,9.44444444444
2018-04-26T00:36:35.209Z,9.44444444444
2018-04-26T00:36:47.621Z,9.44444444444
2018-04-26T00:37:00.051Z,9.44444444444
2018-04-26T00:37:12.471Z,9.44444444444
2018-04-26T00:37:25.043Z,9.44444444444
2018-04-26T00:37:37.455Z,9.44444444444
2018-04-26T00:37:49.857Z,9.44444444444
2018-04-26T00:38:02.282Z,9.44444444444
2018-04-26T00:38:14.686Z,9.44444444444
2018-04-26T00:38:27.118Z,9.38888888889
2018-04-26T00:38:39.544Z,9.44444444444
2018-04-26T00:38:51.974Z,9.38888888889
2018-04-26T00:39:04.383Z,9.38888888889
2018-04-26T00:39:16.883Z,9.38888888889
2018-04-26T00:39:29.282Z,9.38888888889
2018-04-26T00:39:41.703Z,9.38888888889
2018-04-26T00:39:54.113Z,9.38888888889
2018-04-26T00:40:06.530Z,9.38888888889
2018-04-26T00:40:18.934Z,9.38888888889
2018-04-26T00:40:31.331Z,9.38888888889
2018-04-26T00:40:43.729Z,9.38888888889
2018-04-26T00:40:56.140Z,9.38888888889
2018-04-26T00:41:08.560Z,9.38888888889
2018-04-26T00:41:20.978Z,9.38888888889
2018-04-26T00:41:33.469Z,9.38888888889
2018-04-26T00:41:45.894Z,9.38888888889
2018-04-26T00:41:58.325Z,9.38888888889
2018-04-26T00:42:10.723Z,9.38888888889
2018-04-26T00:42:23.353Z,9.38888888889
2018-04-26T00:42:35.764Z,9.38888888889
2018-04-26T00:42:48.171Z,9.38888888889
2018-04-26T00:43:00.677Z,9.38888888889
2018-04-26T00:43:13.086Z,9.38888888889
2018-04-26T00:43:25.514Z,9.38888888889
2018-04-26T00:43:37.937Z,9.33333333333
2018-04-26T00:43:50.349Z,9.33333333333
2018-04-26T00:44:02.769Z,9.38888888889
2018-04-26T00:44:15.189Z,9.33333333333
2018-04-26T00:44:27.653Z,9.33333333333
2018-04-26T00:44:40.130Z,9.33333333333
2018-04-26T00:44:52.556Z,9.33333333333
2018-04-26T00:45:04.987Z,9.33333333333
2018-04-26T00:45:17.591Z,9.33333333333
2018-04-26T00:45:30.220Z,9.33333333333
2018-04-26T00:45:42.642Z,9.33333333333
2018-04-26T00:45:55.174Z,9.33333333333
2018-04-26T00:46:07.615Z,9.38888888889
2018-04-26T00:46:20.025Z,9.33333333333
2018-04-26T00:46:32.452Z,9.33333333333
2018-04-26T00:46:44.847Z,9.33333333333
2018-04-26T00:46:57.273Z,9.27777777778
2018-04-26T00:47:09.683Z,9.33333333333
2018-04-26T00:47:22.111Z,9.33333333333
2018-04-26T00:47:34.554Z,9.33333333333
2018-04-26T00:47:46.975Z,9.27777777778
2018-04-26T00:47:59.680Z,9.33333333333
2018-04-26T00:48:12.728Z,9.33333333333
2018-04-26T00:48:25.124Z,9.33333333333
2018-04-26T00:48:37.530Z,9.27777777778
2018-04-26T00:48:49.944Z,9.33333333333
2018-04-26T00:49:02.357Z,9.27777777778
2018-04-26T00:49:14.768Z,9.27777777778
2018-04-26T00:49:27.175Z,9.33333333333
2018-04-26T00:49:39.590Z,9.27777777778
2018-04-26T00:49:52.013Z,9.27777777778
2018-04-26T00:50:04.426Z,9.27777777778
2018-04-26T00:50:17.080Z,9.27777777778
2018-04-26T00:50:29.491Z,9.27777777778
2018-04-26T00:50:41.895Z,9.27777777778
2018-04-26T00:50:54.313Z,9.27777777778
2018-04-26T00:51:06.732Z,9.27777777778
2018-04-26T00:51:19.142Z,9.27777777778
2018-04-26T00:51:31.544Z,9.27777777778
2018-04-26T00:51:43.972Z,9.27777777778
2018-04-26T00:51:56.387Z,9.27777777778
2018-04-26T00:52:08.793Z,9.27777777778
2018-04-26T00:52:21.203Z,9.27777777778
2018-04-26T00:52:33.605Z,9.27777777778
2018-04-26T00:52:46.013Z,9.27777777778
2018-04-26T00:52:58.431Z,9.27777777778
2018-04-26T00:53:10.830Z,9.27777777778
2018-04-26T00:53:23.233Z,9.27777777778
2018-04-26T00:53:35.652Z,9.27777777778
2018-04-26T00:53:48.066Z,9.27777777778
2018-04-26T00:54:00.463Z,9.22222222222
2018-04-26T00:54:12.891Z,9.27777777778
2018-04-26T00:54:25.309Z,9.27777777778
2018-04-26T00:54:37.723Z,9.22222222222
2018-04-26T00:54:50.128Z,9.22222222222
2018-04-26T00:55:02.568Z,9.16666666667
2018-04-26T00:55:15.104Z,9.22222222222
2018-04-26T00:55:27.526Z,9.22222222222
2018-04-26T00:55:39.933Z,9.22222222222
2018-04-26T00:55:52.342Z,9.22222222222
2018-04-26T00:56:04.755Z,9.16666666667
2018-04-26T00:56:17.201Z,9.22222222222
2018-04-26T00:56:29.609Z,9.22222222222
2018-04-26T00:56:42.015Z,9.16666666667
2018-04-26T00:56:54.423Z,9.16666666667
2018-04-26T00:57:06.885Z,9.16666666667
2018-04-26T00:57:19.297Z,9.16666666667
2018-04-26T00:57:31.711Z,9.16666666667
2018-04-26T00:57:44.136Z,9.16666666667
2018-04-26T00:57:56.566Z,9.16666666667
2018-04-26T00:58:08.989Z,9.16666666667
2018-04-26T00:58:21.387Z,9.16666666667
2018-04-26T00:58:33.797Z,9.16666666667
2018-04-26T00:58:46.201Z,9.16666666667
2018-04-26T00:58:58.639Z,9.16666666667
2018-04-26T00:59:11.052Z,9.16666666667
2018-04-26T00:59:23.464Z,9.11111111111
2018-04-26T00:59:35.866Z,9.16666666667
2018-04-26T00:59:48.331Z,9.11111111111
2018-04-26T01:00:00.733Z,9.11111111111
2018-04-26T01:00:13.246Z,9.11111111111
2018-04-26T01:00:25.711Z,9.11111111111
2018-04-26T01:00:38.149Z,9.11111111111
2018-04-26T01:00:50.581Z,9.11111111111
2018-04-26T01:01:03.015Z,9.11111111111
2018-04-26T01:01:15.454Z,9.11111111111
2018-04-26T01:01:27.950Z,9.11111111111
2018-04-26T01:01:40.358Z,9.11111111111
2018-04-26T01:01:52.872Z,9.11111111111
2018-04-26T01:02:05.309Z,9.11111111111
2018-04-26T01:02:17.747Z,9.05555555556
2018-04-26T01:02:30.169Z,9.11111111111
2018-04-26T01:02:42.581Z,9.11111111111
2018-04-26T01:02:55.001Z,9.05555555556
2018-04-26T01:03:07.443Z,9.05555555556
2018-04-26T01:03:19.907Z,9.05555555556
2018-04-26T01:03:32.323Z,9.05555555556
2018-04-26T01:03:44.752Z,9.05555555556
2018-04-26T01:03:57.163Z,9.05555555556
2018-04-26T01:04:09.584Z,9.05555555556
2018-04-26T01:04:21.996Z,9.05555555556
2018-04-26T01:04:34.412Z,9.05555555556
2018-04-26T01:04:46.823Z,9.05555555556
2018-04-26T01:04:59.250Z,9.05555555556
2018-04-26T01:05:11.841Z,9.05555555556
2018-04-26T01:05:24.320Z,9.05555555556
2018-04-26T01:05:36.753Z,9
2018-04-26T01:05:49.211Z,9.05555555556
2018-04-26T01:06:01.647Z,9
2018-04-26T01:06:14.104Z,9
2018-04-26T01:06:26.519Z,9
2018-04-26T01:06:38.924Z,9
2018-04-26T01:06:51.332Z,9
2018-04-26T01:07:03.760Z,9
2018-04-26T01:07:16.171Z,9
2018-04-26T01:07:28.659Z,9
2018-04-26T01:07:41.079Z,9
2018-04-26T01:07:53.540Z,9
2018-04-26T01:08:05.943Z,9
2018-04-26T01:08:18.364Z,8.94444444444
2018-04-26T01:08:30.779Z,8.94444444444
2018-04-26T01:08:43.202Z,8.94444444444
2018-04-26T01:08:55.620Z,8.94444444444
2018-04-26T01:09:08.025Z,8.94444444444
2018-04-26T01:09:20.428Z,8.94444444444
2018-04-26T01:09:32.901Z,8.94444444444
2018-04-26T01:09:45.391Z,8.94444444444
2018-04-26T01:09:57.807Z,8.94444444444
2018-04-26T01:10:10.227Z,8.94444444444
2018-04-26T01:10:22.650Z,8.94444444444
2018-04-26T01:10:35.172Z,8.94444444444
2018-04-26T01:10:47.601Z,8.94444444444
2018-04-26T01:11:00.027Z,8.88888888889
2018-04-26T01:11:12.459Z,8.94444444444
2018-04-26T01:11:24.874Z,8.94444444444
2018-04-26T01:11:37.289Z,8.88888888889
2018-04-26T01:11:49.729Z,8.94444444444
2018-04-26T01:12:02.169Z,8.88888888889
2018-04-26T01:12:14.603Z,8.88888888889
2018-04-26T01:12:27.026Z,8.88888888889
2018-04-26T01:12:39.438Z,8.88888888889
2018-04-26T01:12:51.861Z,8.88888888889
2018-04-26T01:13:04.286Z,8.88888888889
2018-04-26T01:13:16.706Z,8.88888888889
2018-04-26T01:13:29.120Z,8.88888888889
2018-04-26T01:13:41.661Z,8.88888888889
2018-04-26T01:13:54.069Z,8.88888888889
2018-04-26T01:14:06.494Z,8.88888888889
2018-04-26T01:14:18.930Z,8.83333333333
2018-04-26T01:14:31.435Z,8.88888888889
2018-04-26T01:14:43.850Z,8.88888888889
2018-04-26T01:14:56.334Z,8.88888888889
2018-04-26T01:15:08.751Z,8.88888888889
2018-04-26T01:15:21.167Z,8.83333333333
2018-04-26T01:15:33.579Z,8.88888888889
2018-04-26T01:15:46.042Z,8.88888888889
2018-04-26T01:15:58.462Z,8.88888888889
2018-04-26T01:16:10.892Z,8.88888888889
2018-04-26T01:16:23.293Z,8.88888888889
2018-04-26T01:16:35.721Z,8.83333333333
2018-04-26T01:16:48.127Z,8.83333333333
2018-04-26T01:17:00.545Z,8.88888888889
2018-04-26T01:17:12.970Z,8.83333333333
2018-04-26T01:17:25.390Z,8.88888888889
2018-04-26T01:17:37.797Z,8.83333333333
2018-04-26T01:17:50.206Z,8.83333333333
2018-04-26T01:18:02.615Z,8.83333333333
2018-04-26T01:18:15.022Z,8.83333333333
2018-04-26T01:18:27.569Z,8.83333333333
2018-04-26T01:18:40.320Z,8.83333333333
2018-04-26T01:18:52.719Z,8.83333333333
2018-04-26T01:19:05.122Z,8.83333333333
2018-04-26T01:19:17.701Z,8.83333333333
2018-04-26T01:19:30.150Z,8.83333333333
2018-04-26T01:19:42.587Z,8.83333333333
2018-04-26T01:19:54.994Z,8.83333333333
2018-04-26T01:20:08.007Z,8.83333333333
2018-04-26T01:20:20.847Z,8.83333333333
2018-04-26T01:20:33.348Z,8.83333333333
2018-04-26T01:20:45.771Z,8.83333333333
2018-04-26T01:20:58.194Z,8.83333333333
2018-04-26T01:21:10.609Z,8.83333333333
2018-04-26T01:21:23.021Z,8.83333333333
2018-04-26T01:21:35.423Z,8.83333333333
2018-04-26T01:21:47.840Z,8.83333333333
2018-04-26T01:22:00.248Z,8.83333333333
2018-04-26T01:22:12.674Z,8.83333333333
2018-04-26T01:22:25.081Z,8.83333333333
2018-04-26T01:22:37.497Z,8.83333333333
2018-04-26T01:22:49.910Z,8.83333333333
2018-04-26T01:23:02.380Z,8.77777777778
2018-04-26T01:23:14.782Z,8.83333333333
2018-04-26T01:23:27.199Z,8.83333333333
2018-04-26T01:23:39.624Z,8.83333333333
2018-04-26T01:23:52.022Z,8.77777777778
2018-04-26T01:24:04.431Z,8.83333333333
2018-04-26T01:24:16.861Z,8.77777777778
2018-04-26T01:24:29.324Z,8.77777777778
2018-04-26T01:24:41.739Z,8.77777777778
2018-04-26T01:24:54.165Z,8.77777777778
2018-04-26T01:25:06.580Z,8.77777777778
2018-04-26T01:25:18.991Z,8.77777777778
2018-04-26T01:25:31.386Z,8.77777777778
2018-04-26T01:25:43.804Z,8.77777777778
2018-04-26T01:25:56.201Z,8.77777777778
2018-04-26T01:26:08.611Z,8.77777777778
2018-04-26T01:26:21.017Z,8.77777777778
2018-04-26T01:26:33.418Z,8.77777777778
2018-04-26T01:26:45.834Z,8.77777777778
2018-04-26T01:26:58.246Z,8.77777777778
2018-04-26T01:27:10.709Z,8.77777777778
2018-04-26T01:27:23.126Z,8.77777777778
2018-04-26T01:27:35.536Z,8.77777777778
2018-04-26T01:27:47.979Z,8.77777777778
2018-04-26T01:28:00.447Z,8.77777777778
2018-04-26T01:28:12.872Z,8.77777777778
2018-04-26T01:28:25.292Z,8.77777777778
2018-04-26T01:28:37.721Z,8.72222222222
2018-04-26T01:28:50.152Z,8.77777777778
2018-04-26T01:29:02.558Z,8.77777777778
2018-04-26T01:29:14.977Z,8.72222222222
2018-04-26T01:29:27.388Z,8.72222222222
2018-04-26T01:29:39.809Z,8.72222222222
2018-04-26T01:29:52.227Z,8.72222222222
2018-04-26T01:30:04.627Z,8.77777777778
2018-04-26T01:30:17.051Z,8.72222222222
2018-04-26T01:30:29.463Z,8.72222222222
2018-04-26T01:30:41.856Z,8.72222222222
2018-04-26T01:30:54.269Z,8.72222222222
2018-04-26T01:31:06.688Z,8.72222222222
2018-04-26T01:31:19.097Z,8.66666666667
2018-04-26T01:31:31.508Z,8.72222222222
2018-04-26T01:31:43.918Z,8.72222222222
2018-04-26T01:31:56.355Z,8.72222222222
2018-04-26T01:32:08.770Z,8.72222222222
2018-04-26T01:32:21.186Z,8.66666666667
2018-04-26T01:32:33.584Z,8.72222222222
2018-04-26T01:32:45.996Z,8.66666666667
2018-04-26T01:32:58.718Z,8.72222222222
2018-04-26T01:33:11.124Z,8.66666666667
2018-04-26T01:33:23.537Z,8.66666666667
2018-04-26T01:33:35.977Z,8.72222222222
2018-04-26T01:33:48.464Z,8.66666666667
2018-04-26T01:34:00.872Z,8.72222222222
2018-04-26T01:34:13.298Z,8.66666666667
2018-04-26T01:34:25.715Z,8.66666666667
2018-04-26T01:34:38.121Z,8.66666666667
2018-04-26T01:34:50.538Z,8.66666666667
2018-04-26T01:35:02.958Z,8.66666666667
2018-04-26T01:35:15.425Z,8.66666666667
2018-04-26T01:35:27.846Z,8.66666666667
2018-04-26T01:35:40.311Z,8.66666666667
2018-04-26T01:35:52.733Z,8.66666666667
2018-04-26T01:36:05.161Z,8.66666666667
2018-04-26T01:36:17.572Z,8.66666666667
2018-04-26T01:36:29.976Z,8.61111111111
2018-04-26T01:36:42.376Z,8.66666666667
2018-04-26T01:36:54.789Z,8.61111111111
2018-04-26T01:37:07.187Z,8.61111111111
2018-04-26T01:37:19.588Z,8.66666666667
2018-04-26T01:37:32.001Z,8.61111111111
2018-04-26T01:37:44.399Z,8.61111111111
2018-04-26T01:37:56.849Z,8.61111111111
2018-04-26T01:38:09.421Z,8.61111111111
2018-04-26T01:38:21.823Z,8.61111111111
2018-04-26T01:38:34.248Z,8.55555555556
2018-04-26T01:38:46.673Z,8.55555555556
2018-04-26T01:38:59.074Z,8.55555555556
2018-04-26T01:39:11.497Z,8.55555555556
2018-04-26T01:39:23.934Z,8.55555555556
2018-04-26T01:39:36.357Z,8.55555555556
2018-04-26T01:39:48.765Z,8.55555555556
2018-04-26T01:40:01.169Z,8.55555555556
2018-04-26T01:40:13.597Z,8.55555555556
2018-04-26T01:40:26.006Z,8.55555555556
2018-04-26T01:40:38.409Z,8.55555555556
2018-04-26T01:40:50.824Z,8.55555555556
2018-04-26T01:41:03.229Z,8.5
2018-04-26T01:41:15.644Z,8.55555555556
2018-04-26T01:41:28.072Z,8.5
2018-04-26T01:41:40.562Z,8.55555555556
2018-04-26T01:41:53.076Z,8.55555555556
2018-04-26T01:42:05.486Z,8.5
2018-04-26T01:42:17.919Z,8.5
2018-04-26T01:42:30.322Z,8.5
2018-04-26T01:42:42.804Z,8.5
2018-04-26T01:42:55.598Z,8.5
2018-04-26T01:43:08.092Z,8.5
2018-04-26T01:43:20.489Z,8.5
2018-04-26T01:43:32.905Z,8.5
2018-04-26T01:43:45.319Z,8.5
2018-04-26T01:43:57.807Z,8.5
2018-04-26T01:44:10.239Z,8.5
2018-04-26T01:44:22.655Z,8.5
2018-04-26T01:44:35.065Z,8.5
2018-04-26T01:44:47.474Z,8.44444444444
2018-04-26T01:44:59.883Z,8.5
2018-04-26T01:45:12.313Z,8.44444444444
2018-04-26T01:45:24.733Z,8.44444444444
2018-04-26T01:45:37.170Z,8.44444444444
2018-04-26T01:45:49.666Z,8.5
2018-04-26T01:46:02.081Z,8.44444444444
2018-04-26T01:46:14.584Z,8.44444444444
2018-04-26T01:46:27.006Z,8.44444444444
2018-04-26T01:46:39.421Z,8.44444444444
2018-04-26T01:46:51.831Z,8.44444444444
2018-04-26T01:47:04.247Z,8.44444444444
2018-04-26T01:47:16.656Z,8.44444444444
2018-04-26T01:47:29.130Z,8.44444444444
2018-04-26T01:47:41.546Z,8.44444444444
2018-04-26T01:47:54.068Z,8.38888888889
2018-04-26T01:48:06.558Z,8.44444444444
2018-04-26T01:48:19.152Z,8.38888888889
2018-04-26T01:48:31.642Z,8.38888888889
2018-04-26T01:48:44.050Z,8.38888888889
2018-04-26T01:48:56.461Z,8.38888888889
2018-04-26T01:49:08.886Z,8.38888888889
2018-04-26T01:49:21.306Z,8.38888888889
2018-04-26T01:49:33.711Z,8.38888888889
2018-04-26T01:49:46.143Z,8.38888888889
2018-04-26T01:49:58.557Z,8.38888888889
2018-04-26T01:50:11.075Z,8.38888888889
2018-04-26T01:50:23.508Z,8.38888888889
2018-04-26T01:50:35.926Z,8.38888888889
2018-04-26T01:50:48.332Z,8.38888888889
2018-04-26T01:51:00.770Z,8.38888888889
2018-04-26T01:51:13.179Z,8.38888888889
2018-04-26T01:51:25.632Z,8.33333333333
2018-04-26T01:51:38.035Z,8.38888888889
2018-04-26T01:51:50.444Z,8.33333333333
2018-04-26T01:52:02.866Z,8.38888888889
2018-04-26T01:52:15.309Z,8.33333333333
2018-04-26T01:52:27.725Z,8.38888888889
2018-04-26T01:52:40.135Z,8.33333333333
2018-04-26T01:52:52.554Z,8.33333333333
2018-04-26T01:53:04.955Z,8.38888888889
2018-04-26T01:53:17.692Z,8.33333333333
2018-04-26T01:53:30.172Z,8.38888888889
2018-04-26T01:53:42.577Z,8.33333333333
2018-04-26T01:53:54.985Z,8.38888888889
2018-04-26T01:54:07.420Z,8.38888888889
2018-04-26T01:54:19.839Z,8.38888888889
2018-04-26T01:54:32.281Z,8.33333333333
2018-04-26T01:54:44.718Z,8.33333333333
2018-04-26T01:54:57.130Z,8.33333333333
2018-04-26T01:55:09.553Z,8.33333333333
2018-04-26T01:55:21.984Z,8.38888888889
2018-04-26T01:55:34.407Z,8.33333333333
2018-04-26T01:55:46.814Z,8.33333333333
2018-04-26T01:55:59.238Z,8.33333333333
2018-04-26T01:56:11.657Z,8.33333333333
2018-04-26T01:56:24.062Z,8.33333333333
2018-04-26T01:56:36.474Z,8.33333333333
2018-04-26T01:56:48.888Z,8.33333333333
2018-04-26T01:57:01.323Z,8.33333333333
2018-04-26T01:57:13.833Z,8.33333333333
2018-04-26T01:57:26.239Z,8.33333333333
2018-04-26T01:57:38.662Z,8.33333333333
2018-04-26T01:57:51.081Z,8.33333333333
2018-04-26T01:58:03.483Z,8.33333333333
2018-04-26T01:58:15.923Z,8.33333333333
2018-04-26T01:58:28.345Z,8.33333333333
2018-04-26T01:58:40.755Z,8.33333333333
2018-04-26T01:58:53.200Z,8.33333333333
2018-04-26T01:59:05.668Z,8.33333333333
2018-04-26T01:59:18.100Z,8.33333333333
2018-04-26T01:59:30.514Z,8.33333333333
2018-04-26T01:59:42.930Z,8.33333333333
2018-04-26T01:59:55.350Z,8.33333333333
2018-04-26T02:00:07.786Z,8.27777777778
2018-04-26T02:00:20.327Z,8.27777777778
2018-04-26T02:00:32.789Z,8.27777777778
2018-04-26T02:00:45.241Z,8.33333333333
2018-04-26T02:00:57.677Z,8.33333333333
2018-04-26T02:01:10.098Z,8.27777777778
2018-04-26T02:01:22.520Z,8.27777777778
2018-04-26T02:01:34.927Z,8.27777777778
2018-04-26T02:01:47.349Z,8.27777777778
2018-04-26T02:01:59.779Z,8.27777777778
2018-04-26T02:02:12.206Z,8.27777777778
2018-04-26T02:02:24.606Z,8.27777777778
2018-04-26T02:02:37.020Z,8.27777777778
2018-04-26T02:02:49.527Z,8.27777777778
2018-04-26T02:03:02.042Z,8.27777777778
2018-04-26T02:03:14.544Z,8.27777777778
2018-04-26T02:03:26.963Z,8.27777777778
2018-04-26T02:03:39.396Z,8.27777777778
2018-04-26T02:03:51.806Z,8.27777777778
2018-04-26T02:04:04.235Z,8.27777777778
2018-04-26T02:04:16.662Z,8.27777777778
2018-04-26T02:04:29.090Z,8.27777777778
2018-04-26T02:04:41.509Z,8.27777777778
2018-04-26T02:04:53.935Z,8.27777777778
2018-04-26T02:05:06.365Z,8.27777777778
2018-04-26T02:05:18.770Z,8.27777777778
2018-04-26T02:05:31.187Z,8.27777777778
2018-04-26T02:05:43.603Z,8.27777777778
2018-04-26T02:05:56.016Z,8.27777777778
2018-04-26T02:06:08.419Z,8.27777777778
2018-04-26T02:06:20.832Z,8.27777777778
2018-04-26T02:06:33.249Z,8.27777777778
2018-04-26T02:06:45.674Z,8.27777777778
2018-04-26T02:06:58.089Z,8.27777777778
2018-04-26T02:07:10.520Z,8.27777777778
2018-04-26T02:07:22.922Z,8.27777777778
2018-04-26T02:07:35.424Z,8.27777777778
2018-04-26T02:07:47.841Z,8.27777777778
2018-04-26T02:08:00.249Z,8.27777777778
2018-04-26T02:08:12.692Z,8.27777777778
2018-04-26T02:08:25.115Z,8.27777777778
2018-04-26T02:08:37.550Z,8.27777777778
2018-04-26T02:08:49.955Z,8.27777777778
2018-04-26T02:09:02.379Z,8.27777777778
2018-04-26T02:09:14.804Z,8.27777777778
2018-04-26T02:09:27.217Z,8.27777777778
2018-04-26T02:09:39.658Z,8.27777777778
2018-04-26T02:09:52.134Z,8.22222222222
2018-04-26T02:10:04.573Z,8.27777777778